Time;durP1;ratioP1;P1;durP2;ratioP2;P2;SDS_P1;SDS_P2;PMS_P1;PMS_P2;Temp;Humidity;BMP_temperature;BMP_pressure;BME280_temperature;BME280_humidity;BME280_pressure;Samples;Min_cycle;Max_cycle;Signal;HPM_P1;HPM_P2
2024/01/17 00:02:21;;;;;;;10.82;6.00;;;;;;;0.08;100.00;100114.72;5094856;28;20388;-71
2024/01/17 00:05:12;;;;;;;15.00;6.15;;;;;;;0.07;100.00;100106.88;5091064;28;20059;-68
2024/01/17 00:08:00;;;;;;;12.32;5.88;;;;;;;0.07;100.00;100104.19;5081266;28;20140;-67
2024/01/17 00:10:48;;;;;;;15.07;6.38;;;;;;;0.07;100.00;100096.16;5081577;28;20040;-67
2024/01/17 00:13:36;;;;;;;12.77;5.40;;;;;;;0.06;100.00;100084.63;5094572;28;20500;-67
2024/01/17 00:16:25;;;;;;;10.82;5.68;;;;;;;0.06;100.00;100079.28;5082490;28;20445;-66
2024/01/17 00:19:13;;;;;;;10.68;6.10;;;;;;;0.08;100.00;100087.13;5095883;28;20117;-68
2024/01/17 00:22:01;;;;;;;12.73;6.43;;;;;;;0.05;100.00;100085.69;5095910;28;20041;-69
2024/01/17 00:24:51;;;;;;;13.68;6.47;;;;;;;0.05;100.00;100088.38;5067784;28;20090;-67
2024/01/17 00:27:39;;;;;;;14.82;6.43;;;;;;;0.04;100.00;100077.88;5095120;28;20164;-67
2024/01/17 00:30:27;;;;;;;12.20;6.55;;;;;;;0.03;100.00;100070.88;5095052;28;20154;-66
2024/01/17 00:33:15;;;;;;;14.32;6.32;;;;;;;-0.01;100.00;100060.59;5093944;28;20420;-66
2024/01/17 00:36:03;;;;;;;15.25;6.60;;;;;;;0.00;100.00;100053.38;5064093;28;20047;-67
2024/01/17 00:38:51;;;;;;;12.48;6.00;;;;;;;0.03;100.00;100055.63;5078926;28;20180;-66
2024/01/17 00:41:40;;;;;;;13.90;6.82;;;;;;;0.02;100.00;100053.16;5093257;28;20537;-65
2024/01/17 00:44:29;;;;;;;14.00;6.40;;;;;;;-0.02;100.00;100045.56;5079143;28;20040;-66
2024/01/17 00:47:18;;;;;;;12.30;6.25;;;;;;;-0.06;100.00;100035.50;5078836;28;20059;-67
2024/01/17 00:50:06;;;;;;;14.75;6.25;;;;;;;-0.07;100.00;100023.97;5094979;28;20064;-67
2024/01/17 00:52:54;;;;;;;13.15;6.10;;;;;;;-0.09;100.00;100026.06;5093613;28;20051;-69
2024/01/17 00:55:42;;;;;;;14.55;6.75;;;;;;;-0.13;100.00;100014.13;5060770;28;20052;-67
2024/01/17 00:58:30;;;;;;;12.63;6.25;;;;;;;-0.13;100.00;100011.44;5075281;28;20100;-67
2024/01/17 01:01:18;;;;;;;12.23;6.00;;;;;;;-0.13;100.00;99998.06;5075741;28;20397;-67
2024/01/17 01:04:09;;;;;;;12.65;6.40;;;;;;;-0.17;100.00;99996.03;5078462;28;20040;-66
2024/01/17 01:06:57;;;;;;;14.00;6.53;;;;;;;-0.17;100.00;99991.50;5080312;28;20052;-67
2024/01/17 01:09:45;;;;;;;14.93;6.60;;;;;;;-0.15;100.00;99994.78;5079947;28;20048;-68
2024/01/17 01:12:33;;;;;;;15.15;6.43;;;;;;;-0.14;100.00;99992.94;5065666;28;20075;-66
2024/01/17 01:15:21;;;;;;;15.80;6.60;;;;;;;-0.20;100.00;99991.94;5077785;28;20048;-65
2024/01/17 01:18:10;;;;;;;15.38;6.65;;;;;;;-0.20;100.00;99993.81;5093453;28;20051;-66
2024/01/17 01:20:58;;;;;;;13.25;6.22;;;;;;;-0.18;100.00;99989.88;5064913;28;20040;-68
2024/01/17 01:23:47;;;;;;;12.38;5.88;;;;;;;-0.18;100.00;99984.50;5072112;28;20044;-66
2024/01/17 01:26:35;;;;;;;12.52;6.60;;;;;;;-0.20;100.00;99980.41;5088136;28;20052;-67
2024/01/17 01:29:23;;;;;;;11.52;6.38;;;;;;;-0.21;100.00;99987.63;5066350;28;20055;-66
2024/01/17 01:32:11;;;;;;;13.40;6.03;;;;;;;-0.20;100.00;99980.41;5077606;28;20044;-65
2024/01/17 01:34:59;;;;;;;12.48;6.43;;;;;;;-0.22;100.00;99980.63;5078618;28;20048;-67
2024/01/17 01:37:48;;;;;;;11.32;6.18;;;;;;;-0.25;100.00;99973.03;5078331;28;20044;-65
2024/01/17 01:40:38;;;;;;;12.20;5.97;;;;;;;-0.28;100.00;99974.28;5078427;28;20073;-66
2024/01/17 01:43:26;;;;;;;11.70;5.93;;;;;;;-0.30;100.00;99970.19;5064569;28;20055;-65
2024/01/17 01:46:29;;;;;;;11.30;6.07;;;;;;;-0.30;100.00;99972.88;5065506;28;20036;-67
2024/01/17 01:49:17;;;;;;;14.82;6.88;;;;;;;-0.32;100.00;99972.25;5065306;28;20170;-66
2024/01/17 01:52:07;;;;;;;12.32;5.70;;;;;;;-0.34;100.00;99968.97;5076817;28;20068;-66
2024/01/17 01:54:55;;;;;;;11.98;6.20;;;;;;;-0.35;100.00;99962.00;5077706;28;20080;-67
2024/01/17 01:57:50;;;;;;;12.75;6.10;;;;;;;-0.34;100.00;99960.94;5092585;28;20036;-65
2024/01/17 02:00:39;;;;;;;16.63;6.43;;;;;;;-0.35;100.00;99957.47;5078596;28;20515;-67
2024/01/17 02:03:27;;;;;;;12.27;6.13;;;;;;;-0.42;100.00;99948.66;5075758;28;20036;-65
2024/01/17 02:06:18;;;;;;;11.13;6.18;;;;;;;-0.44;100.00;99946.19;5079291;28;20044;-65
2024/01/17 02:09:06;;;;;;;12.05;6.60;;;;;;;-0.46;100.00;99942.94;5077970;28;20385;-67
2024/01/17 02:11:54;;;;;;;13.50;7.10;;;;;;;-0.50;100.00;99933.69;5092977;28;20189;-66
2024/01/17 02:14:42;;;;;;;10.50;6.10;;;;;;;-0.48;100.00;99928.97;5075195;28;20097;-66
2024/01/17 02:17:30;;;;;;;10.52;5.90;;;;;;;-0.44;100.00;99927.47;5057463;28;20044;-66
2024/01/17 02:20:19;;;;;;;15.82;6.88;;;;;;;-0.43;100.00;99923.78;5092708;28;20138;-68
2024/01/17 02:23:29;;;;;;;14.27;6.75;;;;;;;-0.41;100.00;99918.19;5077290;28;20051;-66
2024/01/17 02:26:17;;;;;;;13.25;6.90;;;;;;;-0.40;100.00;99922.50;5077049;28;20051;-67
2024/01/17 02:29:05;;;;;;;14.93;6.65;;;;;;;-0.43;100.00;99914.94;5092394;28;20407;-67
2024/01/17 02:31:53;;;;;;;16.52;6.38;;;;;;;-0.43;100.00;99902.38;5092324;28;20552;-67
2024/01/17 02:34:41;;;;;;;12.50;5.63;;;;;;;-0.44;100.00;99900.72;5090609;28;20556;-67
2024/01/17 02:37:30;;;;;;;11.50;6.22;;;;;;;-0.47;100.00;99901.16;5073060;28;20040;-66
2024/01/17 02:40:18;;;;;;;14.48;6.55;;;;;;;-0.46;100.00;99897.47;5080741;28;20149;-67
2024/01/17 02:43:06;;;;;;;12.73;6.60;;;;;;;-0.48;100.00;99878.13;5095363;28;20037;-67
2024/01/17 02:45:54;;;;;;;13.18;6.43;;;;;;;-0.44;100.00;99876.63;5097075;28;20120;-67
2024/01/17 02:48:42;;;;;;;13.02;6.82;;;;;;;-0.43;100.00;99870.25;5068572;28;20067;-65
2024/01/17 02:51:31;;;;;;;13.50;6.65;;;;;;;-0.43;100.00;99867.56;5085229;28;20043;-67
2024/01/17 02:54:19;;;;;;;12.68;6.60;;;;;;;-0.46;100.00;99864.50;5097696;28;20048;-67
2024/01/17 02:57:07;;;;;;;12.82;6.93;;;;;;;-0.47;100.00;99865.56;5077248;28;20040;-67
2024/01/17 02:59:55;;;;;;;11.73;6.82;;;;;;;-0.51;100.00;99859.81;5076610;28;20040;-67
2024/01/17 03:02:43;;;;;;;13.75;7.25;;;;;;;-0.52;100.00;99855.50;5061305;28;20052;-66
2024/01/17 03:05:31;;;;;;;15.75;7.47;;;;;;;-0.53;100.00;99851.22;5079399;28;20061;-66
2024/01/17 03:08:19;;;;;;;12.20;6.82;;;;;;;-0.53;100.00;99845.00;5059231;28;20059;-69
2024/01/17 03:11:07;;;;;;;13.30;6.78;;;;;;;-0.51;100.00;99834.91;5074494;28;20044;-68
2024/01/17 03:13:56;;;;;;;12.13;6.78;;;;;;;-0.50;100.00;99832.03;5091938;28;20570;-67
2024/01/17 03:16:43;;;;;;;13.98;7.35;;;;;;;-0.47;100.00;99826.22;5063301;28;20081;-67
2024/01/17 03:19:31;;;;;;;13.63;7.00;;;;;;;-0.51;100.00;99825.03;5077678;28;20123;-67
2024/01/17 03:22:20;;;;;;;13.82;6.82;;;;;;;-0.52;100.00;99810.03;5075418;28;20515;-67
2024/01/17 03:25:08;;;;;;;12.35;6.70;;;;;;;-0.52;100.00;99806.53;5094225;28;20122;-68
2024/01/17 03:27:56;;;;;;;12.38;6.20;;;;;;;-0.51;100.00;99803.63;5096393;28;20044;-69
2024/01/17 03:30:44;;;;;;;13.35;6.50;;;;;;;-0.51;100.00;99803.63;5066812;28;20040;-68
2024/01/17 03:33:33;;;;;;;13.02;6.53;;;;;;;-0.49;100.00;99800.72;5078523;28;20036;-67
2024/01/17 03:36:21;;;;;;;14.10;6.10;;;;;;;-0.50;100.00;99799.91;5081135;28;20416;-66
2024/01/17 03:39:09;;;;;;;13.65;7.10;;;;;;;-0.56;100.00;99787.41;5066982;28;20044;-67
2024/01/17 03:41:57;;;;;;;14.32;6.50;;;;;;;-0.54;100.00;99787.22;5093872;28;20048;-68
2024/01/17 03:44:46;;;;;;;12.20;6.57;;;;;;;-0.55;100.00;99770.34;5096619;28;20464;-67
2024/01/17 03:47:34;;;;;;;14.93;6.35;;;;;;;-0.58;100.00;99765.41;5046414;28;20048;-67
2024/01/17 03:50:24;;;;;;;13.50;6.55;;;;;;;-0.61;100.00;99765.84;5055762;28;20486;-67
2024/01/17 03:53:12;;;;;;;12.15;6.38;;;;;;;-0.63;100.00;99757.22;5044972;28;20207;-66
2024/01/17 03:56:00;;;;;;;13.15;6.35;;;;;;;-0.63;100.00;99746.53;5055311;28;20067;-67
2024/01/17 03:58:48;;;;;;;12.25;6.47;;;;;;;-0.61;100.00;99733.75;5039676;28;20045;-66
2024/01/17 04:01:43;;;;;;;15.07;7.30;;;;;;;-0.62;100.00;99726.78;5055551;28;20114;-65
2024/01/17 04:04:31;;;;;;;15.00;7.10;;;;;;;-0.66;100.00;99720.22;5038281;28;20132;-65
2024/01/17 04:07:22;;;;;;;13.07;6.75;;;;;;;-0.65;100.00;99724.53;5053997;28;20056;-64
2024/01/17 04:10:10;;;;;;;13.00;7.40;;;;;;;-0.65;100.00;99705.81;5053649;28;20500;-64
2024/01/17 04:12:58;;;;;;;12.95;6.72;;;;;;;-0.71;100.00;99696.00;5054176;28;20116;-65
2024/01/17 04:15:46;;;;;;;13.30;6.72;;;;;;;-0.71;100.00;99694.16;5041764;28;20041;-65
2024/01/17 04:18:36;;;;;;;12.05;6.03;;;;;;;-0.70;100.00;99681.59;5053527;28;20424;-67
2024/01/17 04:21:25;;;;;;;13.38;6.93;;;;;;;-0.70;100.00;99676.25;5037984;28;20095;-65
2024/01/17 04:24:13;;;;;;;15.98;7.45;;;;;;;-0.76;100.00;99669.94;5056736;28;20076;-66
2024/01/17 04:27:01;;;;;;;14.70;6.72;;;;;;;-0.74;100.00;99659.03;5030986;28;20041;-65
2024/01/17 04:29:49;;;;;;;12.32;6.63;;;;;;;-0.74;100.00;99656.34;5039129;28;20056;-67
2024/01/17 04:32:38;;;;;;;11.10;6.00;;;;;;;-0.70;100.00;99647.66;5039495;28;20060;-65
2024/01/17 04:35:26;;;;;;;13.73;6.28;;;;;;;-0.67;100.00;99638.38;5045346;28;20131;-67
2024/01/17 04:38:14;;;;;;;14.10;6.30;;;;;;;-0.69;100.00;99621.72;5059003;28;20123;-65
2024/01/17 04:41:03;;;;;;;12.85;6.20;;;;;;;-0.79;100.00;99619.56;5075135;28;20044;-66
2024/01/17 04:43:51;;;;;;;12.52;6.88;;;;;;;-0.77;100.00;99611.31;5050159;28;20053;-66
2024/01/17 04:46:39;;;;;;;13.20;6.72;;;;;;;-0.73;100.00;99610.63;5052570;28;20078;-67
2024/01/17 04:49:27;;;;;;;15.30;6.55;;;;;;;-0.68;100.00;99605.44;5063562;28;20044;-66
2024/01/17 04:52:18;;;;;;;11.32;6.40;;;;;;;-0.65;100.00;99598.81;5079240;28;20044;-67
2024/01/17 04:55:09;;;;;;;14.25;6.13;;;;;;;-0.66;100.00;99598.00;5094716;28;20555;-66
2024/01/17 04:57:57;;;;;;;12.48;6.47;;;;;;;-0.64;100.00;99600.47;5048659;28;20048;-66
2024/01/17 05:00:45;;;;;;;11.98;6.53;;;;;;;-0.65;100.00;99598.81;5039789;28;20049;-66
2024/01/17 05:03:34;;;;;;;15.45;6.53;;;;;;;-0.70;100.00;99604.88;5064196;28;20048;-66
2024/01/17 05:06:22;;;;;;;11.63;6.60;;;;;;;-0.69;100.00;99597.66;5063355;28;20155;-66
2024/01/17 05:09:11;;;;;;;12.82;6.63;;;;;;;-0.71;100.00;99594.38;5059070;28;20052;-67
2024/01/17 05:12:00;;;;;;;15.30;6.75;;;;;;;-0.72;100.00;99587.38;5074689;28;20134;-66
2024/01/17 05:14:48;;;;;;;14.55;7.10;;;;;;;-0.73;100.00;99564.38;5057877;28;20051;-66
2024/01/17 05:17:36;;;;;;;12.23;6.63;;;;;;;-0.74;100.00;99557.41;5079039;28;20052;-65
2024/01/17 05:20:24;;;;;;;14.40;6.95;;;;;;;-0.74;100.00;99555.53;5065173;28;20412;-65
2024/01/17 05:23:12;;;;;;;13.88;7.13;;;;;;;-0.73;100.00;99554.47;5043467;28;20099;-66
2024/01/17 05:26:00;;;;;;;14.82;7.97;;;;;;;-0.70;100.00;99558.56;5060710;28;20394;-66
2024/01/17 05:28:48;;;;;;;16.05;8.02;;;;;;;-0.68;100.00;99564.50;5059782;28;20059;-66
2024/01/17 05:31:36;;;;;;;17.88;9.82;;;;;;;-0.80;100.00;99550.25;5073420;28;20386;-66
2024/01/17 05:34:24;;;;;;;18.73;9.45;;;;;;;-0.96;100.00;99549.84;5045585;28;20522;-67
2024/01/17 05:37:12;;;;;;;17.65;8.55;;;;;;;-0.95;100.00;99531.94;5065051;28;20047;-66
2024/01/17 05:40:00;;;;;;;20.10;8.48;;;;;;;-0.93;100.00;99527.19;5060160;28;20068;-66
2024/01/17 05:42:48;;;;;;;13.10;7.53;;;;;;;-0.94;100.00;99523.69;5058522;28;20049;-67
2024/01/17 05:45:36;;;;;;;15.43;8.48;;;;;;;-0.86;100.00;99507.34;5045055;28;20183;-67
2024/01/17 05:48:25;;;;;;;15.02;7.93;;;;;;;-0.81;100.00;99503.19;5063015;28;20170;-66
2024/01/17 05:51:13;;;;;;;13.38;7.63;;;;;;;-0.79;100.00;99501.09;5053754;28;20460;-66
2024/01/17 05:54:01;;;;;;;15.13;7.70;;;;;;;-0.82;100.00;99496.19;5055124;28;20067;-65
2024/01/17 05:56:49;;;;;;;16.40;7.38;;;;;;;-0.82;100.00;99480.94;5039361;28;20084;-66
2024/01/17 05:59:37;;;;;;;14.13;7.68;;;;;;;-0.80;100.00;99480.72;5027592;28;20240;-65
2024/01/17 06:02:25;;;;;;;11.70;6.70;;;;;;;-0.79;100.00;99477.03;5050232;28;20052;-65
2024/01/17 06:05:15;;;;;;;14.65;7.32;;;;;;;-0.79;100.00;99483.19;5054472;28;20041;-66
2024/01/17 06:08:04;;;;;;;17.20;7.22;;;;;;;-0.81;100.00;99471.91;5049516;28;20041;-66
2024/01/17 06:10:52;;;;;;;12.13;6.65;;;;;;;-0.79;100.00;99479.72;5062792;28;20063;-66
2024/01/17 06:13:40;;;;;;;11.90;6.63;;;;;;;-0.82;100.00;99474.78;5062938;28;20067;-64
2024/01/17 06:16:28;;;;;;;15.15;7.28;;;;;;;-0.83;100.00;99465.97;5035424;28;20067;-66
2024/01/17 06:19:16;;;;;;;12.30;6.85;;;;;;;-0.84;100.00;99463.50;5048982;28;20076;-67
2024/01/17 06:22:04;;;;;;;11.05;6.60;;;;;;;-0.89;100.00;99470.38;5069726;28;20040;-64
2024/01/17 06:24:52;;;;;;;12.18;6.22;;;;;;;-0.89;100.00;99467.69;5071402;28;20419;-66
2024/01/17 06:27:40;;;;;;;13.40;7.13;;;;;;;-0.88;100.00;99461.28;5049040;28;20045;-65
2024/01/17 06:30:28;;;;;;;13.38;6.72;;;;;;;-0.86;100.00;99459.22;5055823;28;20044;-65
2024/01/17 06:33:18;;;;;;;15.20;7.13;;;;;;;-0.82;100.00;99453.41;5038991;28;20049;-65
2024/01/17 06:36:08;;;;;;;11.35;6.50;;;;;;;-0.82;100.00;99451.53;5074324;28;20210;-65
2024/01/17 06:38:57;;;;;;;12.18;6.65;;;;;;;-0.82;100.00;99453.41;5057683;28;20045;-64
2024/01/17 06:41:46;;;;;;;11.38;6.20;;;;;;;-0.81;100.00;99436.34;4332925;28;10000720;-66
2024/01/17 06:44:34;;;;;;;12.05;7.13;;;;;;;-0.79;100.00;99428.91;5056012;28;20045;-66
2024/01/17 06:47:22;;;;;;;13.60;6.60;;;;;;;-0.79;100.00;99432.38;5034189;28;20053;-66
2024/01/17 06:50:10;;;;;;;12.05;6.80;;;;;;;-0.78;100.00;99430.50;5066435;28;20165;-66
2024/01/17 06:52:58;;;;;;;11.63;6.38;;;;;;;-0.82;100.00;99422.13;5067253;28;20175;-66
2024/01/17 06:55:47;;;;;;;12.45;6.50;;;;;;;-0.82;100.00;99421.31;5047899;28;20084;-66
2024/01/17 06:58:35;;;;;;;10.55;6.07;;;;;;;-0.78;100.00;99425.16;5047251;28;20105;-65
2024/01/17 07:01:23;;;;;;;10.70;6.45;;;;;;;-0.76;100.00;99428.44;5041938;28;20051;-66
2024/01/17 07:04:11;;;;;;;14.00;6.97;;;;;;;-0.76;100.00;99420.41;5042243;28;20049;-65
2024/01/17 07:06:59;;;;;;;11.98;6.72;;;;;;;-0.77;100.00;99413.41;5011483;28;20044;-66
2024/01/17 07:09:48;;;;;;;12.25;7.10;;;;;;;-0.80;100.00;99409.34;5055992;28;20052;-68
2024/01/17 07:12:36;;;;;;;12.10;6.75;;;;;;;-0.82;100.00;99405.25;5054505;28;20175;-66
2024/01/17 07:15:25;;;;;;;12.77;6.60;;;;;;;-0.86;100.00;99391.56;5060980;28;20055;-66
2024/01/17 07:18:13;;;;;;;13.95;7.10;;;;;;;-0.87;100.00;99388.06;5058367;28;20049;-64
2024/01/17 07:21:07;;;;;;;12.15;7.22;;;;;;;-0.87;100.00;99382.72;5051343;28;20052;-66
2024/01/17 07:23:55;;;;;;;12.20;7.45;;;;;;;-0.89;100.00;99376.78;5039275;28;20057;-65
2024/01/17 07:26:43;;;;;;;13.93;7.32;;;;;;;-0.88;100.00;99370.38;5030760;28;20041;-66
2024/01/17 07:29:31;;;;;;;15.13;7.00;;;;;;;-0.84;100.00;99356.53;5053732;28;20076;-66
2024/01/17 07:32:19;;;;;;;12.40;7.18;;;;;;;-0.79;100.00;99351.34;5013865;28;20440;-66
2024/01/17 07:35:08;;;;;;;11.70;6.88;;;;;;;-0.78;100.00;99342.28;5070122;28;20489;-67
2024/01/17 07:37:58;;;;;;;13.85;7.10;;;;;;;-0.76;100.00;99349.03;5043387;28;20052;-65
2024/01/17 07:40:46;;;;;;;14.38;7.13;;;;;;;-0.71;100.00;99340.31;5052233;28;20045;-64
2024/01/17 07:43:34;;;;;;;15.73;7.22;;;;;;;-0.68;100.00;99331.81;5040303;28;20123;-65
2024/01/17 07:46:23;;;;;;;13.93;7.72;;;;;;;-0.67;100.00;99320.91;5074003;28;20080;-63
2024/01/17 07:49:11;;;;;;;13.23;7.32;;;;;;;-0.70;100.00;99318.69;5055324;28;20052;-64
2024/01/17 07:51:59;;;;;;;16.88;7.75;;;;;;;-0.70;100.00;99307.16;5071160;28;20155;-64
2024/01/17 07:54:48;;;;;;;13.40;7.35;;;;;;;-0.75;100.00;99304.38;5074121;28;20052;-63
2024/01/17 07:57:36;;;;;;;14.98;7.43;;;;;;;-0.77;100.00;99306.44;5050016;28;20044;-64
2024/01/17 08:00:24;;;;;;;15.93;7.68;;;;;;;-0.77;100.00;99306.44;5060949;28;20098;-64
2024/01/17 08:03:12;;;;;;;12.45;7.38;;;;;;;-0.77;100.00;99304.63;5086756;28;20048;-64
2024/01/17 08:06:00;;;;;;;12.10;6.90;;;;;;;-0.74;100.00;99303.34;5061297;28;20039;-64
2024/01/17 08:08:48;;;;;;;13.13;7.75;;;;;;;-0.76;100.00;99294.72;5076035;28;20051;-65
2024/01/17 08:11:36;;;;;;;16.27;8.35;;;;;;;-0.92;100.00;99294.34;5074298;28;20049;-66
2024/01/17 08:14:25;;;;;;;15.05;8.43;;;;;;;-1.03;100.00;99287.13;5078364;28;20090;-63
2024/01/17 08:17:12;;;;;;;13.32;8.20;;;;;;;-1.09;100.00;99290.72;5093857;28;20054;-64
2024/01/17 08:20:00;;;;;;;17.63;8.18;;;;;;;-1.06;100.00;99282.22;5095410;28;20052;-64
2024/01/17 08:22:48;;;;;;;15.38;8.55;;;;;;;-1.01;100.00;99271.69;5095059;28;20052;-68
2024/01/17 08:25:36;;;;;;;12.95;7.38;;;;;;;-0.92;100.00;99272.16;5094974;28;20048;-64
2024/01/17 08:28:24;;;;;;;14.73;7.88;;;;;;;-0.83;100.00;99267.28;5094510;28;20048;-65
2024/01/17 08:31:13;;;;;;;13.95;7.72;;;;;;;-0.76;100.00;99270.66;5079428;28;20182;-66
2024/01/17 08:34:01;;;;;;;13.00;7.15;;;;;;;-0.71;100.00;99262.75;5081533;28;20040;-64
2024/01/17 08:36:50;;;;;;;13.18;7.00;;;;;;;-0.67;100.00;99259.38;5095041;28;20051;-66
2024/01/17 08:39:38;;;;;;;13.45;7.38;;;;;;;-0.68;100.00;99246.22;5093415;28;20557;-65
2024/01/17 08:42:26;;;;;;;14.75;7.80;;;;;;;-0.69;100.00;99241.94;5093776;28;20131;-63
2024/01/17 08:45:15;;;;;;;16.45;6.97;;;;;;;-0.76;100.00;99233.22;5082113;28;20372;-65
2024/01/17 08:48:04;;;;;;;26.90;7.90;;;;;;;-0.79;100.00;99245.19;5090320;28;20048;-65
2024/01/17 08:50:52;;;;;;;13.55;7.10;;;;;;;-0.76;100.00;99236.72;5074243;28;20056;-65
2024/01/17 08:53:41;;;;;;;15.45;7.68;;;;;;;-0.84;100.00;99230.88;5092163;28;20460;-63
2024/01/17 08:56:29;;;;;;;13.75;6.72;;;;;;;-0.96;100.00;99234.38;5079058;28;20127;-65
2024/01/17 08:59:18;;;;;;;14.73;6.95;;;;;;;-0.94;100.00;99226.13;5053870;28;20072;-65
2024/01/17 09:02:06;;;;;;;14.55;7.15;;;;;;;-0.90;100.00;99221.94;5073708;28;20056;-66
2024/01/17 09:04:54;;;;;;;16.85;6.68;;;;;;;-0.78;100.00;99208.56;5065474;28;20121;-67
2024/01/17 09:07:43;;;;;;;13.52;6.90;;;;;;;-0.71;100.00;99203.91;5080577;28;20132;-67
2024/01/17 09:10:31;;;;;;;15.57;7.20;;;;;;;-0.68;100.00;99203.44;5074215;28;20053;-67
2024/01/17 09:13:19;;;;;;;11.88;6.97;;;;;;;-0.62;100.00;99199.03;5073190;28;20123;-68
2024/01/17 09:16:07;;;;;;;15.82;7.35;;;;;;;-0.58;100.00;99184.94;5072389;28;20394;-67
2024/01/17 09:18:55;;;;;;;13.85;7.18;;;;;;;-0.55;100.00;99172.97;5039693;28;20045;-66
2024/01/17 09:21:44;;;;;;;13.40;7.30;;;;;;;-0.52;100.00;99175.97;5052459;28;20049;-66
2024/01/17 09:24:32;;;;;;;15.32;7.43;;;;;;;-0.49;100.00;99162.13;5065426;28;20485;-67
2024/01/17 09:27:20;;;;;;;17.23;7.80;;;;;;;-0.45;100.00;99159.81;5074508;28;20043;-67
2024/01/17 09:30:08;;;;;;;12.48;7.53;;;;;;;-0.41;100.00;99160.13;5065978;28;20455;-65
2024/01/17 09:32:57;;;;;;;13.65;7.30;;;;;;;-0.40;100.00;99164.44;5079613;28;20048;-66
2024/01/17 09:35:45;;;;;;;19.58;7.50;;;;;;;-0.38;100.00;99160.47;5078484;28;20040;-67
2024/01/17 09:38:44;;;;;;;13.80;7.80;;;;;;;-0.38;100.00;99168.50;5092863;28;20044;-67
2024/01/17 09:41:32;;;;;;;15.07;7.70;;;;;;;-0.39;100.00;99171.41;5092400;28;20078;-69
2024/01/17 09:44:21;;;;;;;14.10;7.28;;;;;;;-0.39;100.00;99166.84;5059131;28;20047;-67
2024/01/17 09:47:11;;;;;;;15.38;7.88;;;;;;;-0.39;100.00;99164.19;5057838;28;20052;-66
2024/01/17 09:49:59;;;;;;;16.30;8.05;;;;;;;-0.36;100.00;99162.91;5057515;28;20044;-67
2024/01/17 09:52:48;;;;;;;15.30;7.80;;;;;;;-0.44;100.00;99164.09;5064277;28;20083;-68
2024/01/17 09:55:38;;;;;;;18.75;7.90;;;;;;;-0.45;100.00;99167.81;5092659;28;20050;-67
2024/01/17 09:58:30;;;;;;;14.48;8.00;;;;;;;-0.43;100.00;99155.84;5079624;28;20496;-65
2024/01/17 10:01:19;;;;;;;15.00;8.45;;;;;;;-0.42;100.00;99153.97;5077953;28;20044;-67
2024/01/17 10:04:09;;;;;;;14.55;7.85;;;;;;;-0.49;100.00;99151.41;5078718;28;20066;-66
2024/01/17 10:06:57;;;;;;;16.15;7.70;;;;;;;-0.52;100.00;99146.56;5078119;28;20388;-67
2024/01/17 10:09:46;;;;;;;24.98;12.65;;;;;;;-0.58;100.00;99149.34;5077730;28;20052;-66
2024/01/17 10:12:34;;;;;;;19.88;9.00;;;;;;;-0.61;100.00;99142.63;5077238;28;20074;-66
2024/01/17 10:15:23;;;;;;;13.52;7.93;;;;;;;-0.57;100.00;99137.63;5078309;28;20549;-66
2024/01/17 10:18:12;;;;;;;17.13;7.65;;;;;;;-0.53;100.00;99134.25;5085382;28;20056;-65
2024/01/17 10:21:01;;;;;;;16.98;8.18;;;;;;;-0.56;100.00;99126.66;5067544;28;20413;-66
2024/01/17 10:23:49;;;;;;;15.75;8.10;;;;;;;-0.60;100.00;99124.69;5058387;28;20048;-66
2024/01/17 10:26:55;;;;;;;15.18;8.18;;;;;;;-0.59;100.00;99126.34;5072562;28;20044;-66
2024/01/17 10:29:43;;;;;;;16.73;8.63;;;;;;;-0.59;100.00;99113.78;5072957;28;20056;-66
2024/01/17 10:32:32;;;;;;;16.20;8.18;;;;;;;-0.58;100.00;99112.72;5083219;28;20522;-66
2024/01/17 10:35:23;;;;;;;13.10;8.07;;;;;;;-0.57;100.00;99108.19;5080407;28;20043;-67
2024/01/17 10:38:11;;;;;;;16.13;7.75;;;;;;;-0.58;100.00;99099.34;5062388;28;20508;-66
2024/01/17 10:41:06;;;;;;;16.17;8.70;;;;;;;-0.49;100.00;99099.78;5075709;28;20040;-66
2024/01/17 10:44:02;;;;;;;15.20;8.32;;;;;;;-0.54;100.00;99107.72;5083768;28;20101;-69
2024/01/17 10:46:54;;;;;;;17.48;9.07;;;;;;;-0.61;100.00;99096.34;5047706;28;20045;-67
2024/01/17 10:49:43;;;;;;;19.38;8.57;;;;;;;-0.59;100.00;99100.41;5060924;28;20090;-65
2024/01/17 10:52:36;;;;;;;16.63;8.35;;;;;;;-0.46;100.00;99096.63;5048440;28;20444;-66
2024/01/17 10:55:29;;;;;;;15.90;8.70;;;;;;;-0.31;100.00;99094.25;5059976;28;20520;-67
2024/01/17 10:58:18;;;;;;;16.73;9.15;;;;;;;-0.29;100.00;99083.28;5078248;28;20123;-67
2024/01/17 11:01:11;;;;;;;18.20;9.32;;;;;;;-0.37;100.00;99075.66;5062089;28;20048;-68
2024/01/17 11:04:14;;;;;;;15.95;9.50;;;;;;;-0.44;100.00;99065.91;5062034;28;20045;-67
2024/01/17 11:07:02;;;;;;;18.15;8.45;;;;;;;-0.44;100.00;99060.56;5057640;28;20052;-66
2024/01/17 11:09:52;;;;;;;14.40;8.57;;;;;;;-0.35;100.00;99055.63;5064344;28;20051;-67
2024/01/17 11:12:42;;;;;;;18.08;8.93;;;;;;;-0.34;100.00;99045.75;5081402;28;20497;-66
2024/01/17 11:15:32;;;;;;;16.35;8.60;;;;;;;-0.37;100.00;99044.34;5070776;28;20052;-67
2024/01/17 11:18:23;;;;;;;15.05;8.48;;;;;;;-0.39;100.00;99043.78;5091450;28;20074;-66
2024/01/17 11:21:12;;;;;;;16.02;8.95;;;;;;;-0.36;100.00;99042.50;5061585;28;20040;-68
2024/01/17 11:24:23;;;;;;;21.27;9.60;;;;;;;-0.40;100.00;99044.03;5063460;28;20127;-68
2024/01/17 11:27:28;;;;;;;19.25;9.55;;;;;;;-0.37;100.00;99039.00;5075648;28;20050;-66
2024/01/17 11:31:03;;;;;;;17.52;9.07;;;;;;;-0.19;100.00;99031.81;5050685;28;20083;-66
2024/01/17 11:33:52;;;;;;;15.95;8.85;;;;;;;-0.09;100.00;99024.78;5031233;28;20052;-66
2024/01/17 11:36:45;;;;;;;15.57;8.45;;;;;;;-0.01;100.00;99020.88;5062288;28;20045;-66
2024/01/17 11:39:33;;;;;;;15.05;9.15;;;;;;;0.01;100.00;99009.94;5060471;28;20045;-66
2024/01/17 11:42:22;;;;;;;16.38;8.23;;;;;;;0.01;100.00;99012.63;5062198;28;20489;-66
2024/01/17 11:45:10;;;;;;;15.73;8.73;;;;;;;0.00;100.00;99006.47;5059237;28;20072;-68
2024/01/17 11:48:18;;;;;;;16.25;8.75;;;;;;;0.03;100.00;98997.94;5026475;28;20045;-66
2024/01/17 11:51:15;;;;;;;19.40;9.23;;;;;;;0.08;100.00;98994.53;5055049;28;20072;-66
2024/01/17 11:54:04;;;;;;;22.25;9.48;;;;;;;0.12;100.00;98979.56;5061523;28;20063;-67
2024/01/17 11:56:57;;;;;;;20.85;9.57;;;;;;;0.13;100.00;98978.53;5060535;28;20060;-66
2024/01/17 11:59:49;;;;;;;16.92;9.65;;;;;;;0.13;100.00;98978.53;5093375;28;20040;-67
2024/01/17 12:02:41;;;;;;;15.50;8.82;;;;;;;0.14;100.00;98964.06;5094709;28;20423;-66
2024/01/17 12:05:30;;;;;;;14.40;9.00;;;;;;;0.14;100.00;98948.81;5096505;28;20048;-66
2024/01/17 12:08:19;;;;;;;15.45;8.88;;;;;;;0.14;100.00;98942.66;5094465;28;20068;-67
2024/01/17 12:11:07;;;;;;;16.08;9.63;;;;;;;0.15;100.00;98938.94;5077300;28;20404;-65
2024/01/17 12:13:55;;;;;;;17.15;9.60;;;;;;;0.14;100.00;98935.41;5080185;28;20073;-66
2024/01/17 12:16:46;;;;;;;20.10;10.13;;;;;;;0.06;100.00;98925.16;5095063;28;20044;-67
2024/01/17 12:19:35;;;;;;;15.40;9.32;;;;;;;0.09;100.00;98910.44;5066599;28;20047;-67
2024/01/17 12:22:23;;;;;;;16.25;9.35;;;;;;;0.15;100.00;98906.81;5064032;28;20396;-67
2024/01/17 12:25:11;;;;;;;13.77;9.18;;;;;;;0.17;100.00;98893.97;5064319;28;20055;-66
2024/01/17 12:28:02;;;;;;;15.55;9.05;;;;;;;0.20;100.00;98891.59;5081279;28;20044;-66
2024/01/17 12:31:04;;;;;;;17.25;9.85;;;;;;;0.13;100.00;98884.81;5094176;28;20091;-66
2024/01/17 12:33:52;;;;;;;18.80;10.05;;;;;;;-0.01;100.00;98887.03;5077120;28;20078;-67
2024/01/17 12:36:40;;;;;;;18.60;9.25;;;;;;;-0.10;100.00;98878.59;5077052;28;20090;-67
2024/01/17 12:39:28;;;;;;;19.48;9.68;;;;;;;-0.12;100.00;98874.53;5079944;28;20048;-66
2024/01/17 12:42:17;;;;;;;18.02;10.18;;;;;;;-0.17;100.00;98866.44;5080151;28;20044;-67
2024/01/17 12:45:06;;;;;;;16.30;9.38;;;;;;;-0.23;100.00;98861.03;5082592;28;20054;-66
2024/01/17 12:47:54;;;;;;;19.67;10.00;;;;;;;-0.17;100.00;98855.75;5094932;28;20040;-67
2024/01/17 12:50:49;;;;;;;17.52;9.35;;;;;;;-0.12;100.00;98853.13;5065778;28;20519;-67
2024/01/17 12:53:39;;;;;;;22.58;10.00;;;;;;;-0.10;100.00;98849.16;5059025;28;20187;-66
2024/01/17 12:56:28;;;;;;;17.73;9.00;;;;;;;-0.06;100.00;98836.09;5074067;28;20040;-66
2024/01/17 12:59:17;;;;;;;16.65;9.20;;;;;;;-0.01;100.00;98834.28;5060395;28;20059;-68